createdAt,value
2019-01-03T00:00:44.073Z,1029.75
2019-01-03T00:01:44.064Z,1029.72
2019-01-03T00:02:44.073Z,1029.72
2019-01-03T00:03:44.080Z,1029.67
2019-01-03T00:04:44.031Z,1029.66
2019-01-03T00:05:44.027Z,1029.69
2019-01-03T00:06:44.025Z,1029.69
2019-01-03T00:07:44.014Z,1029.72
2019-01-03T00:08:44.040Z,1029.75
2019-01-03T00:09:44.005Z,1029.73
2019-01-03T00:10:44.016Z,1029.73
2019-01-03T00:11:43.949Z,1029.74
2019-01-03T00:12:44.005Z,1029.79
2019-01-03T00:13:43.982Z,1029.82
2019-01-03T00:14:44.093Z,1029.78
2019-01-03T00:15:43.981Z,1029.82
2019-01-03T00:16:43.901Z,1029.80
2019-01-03T00:17:44.022Z,1029.79
2019-01-03T00:18:43.943Z,1029.81
2019-01-03T00:19:44.027Z,1029.76
2019-01-03T00:20:44.020Z,1029.81
2019-01-03T00:21:44.113Z,1029.85
2019-01-03T00:22:43.969Z,1029.79
2019-01-03T00:23:44.027Z,1029.82
2019-01-03T00:24:44.060Z,1029.82
2019-01-03T00:25:43.812Z,1029.81
2019-01-03T00:26:43.785Z,1029.75
2019-01-03T00:27:43.782Z,1029.82
2019-01-03T00:28:43.761Z,1029.81
2019-01-03T00:29:43.797Z,1029.82
2019-01-03T00:30:43.749Z,1029.80
2019-01-03T00:31:43.792Z,1029.78
2019-01-03T00:32:43.724Z,1029.75
2019-01-03T00:33:43.703Z,1029.79
2019-01-03T00:34:43.692Z,1029.79
2019-01-03T00:35:43.730Z,1029.85
2019-01-03T00:36:43.674Z,1029.81
2019-01-03T00:37:43.676Z,1029.84
2019-01-03T00:38:43.660Z,1029.89
2019-01-03T00:39:43.642Z,1029.92
2019-01-03T00:40:43.740Z,1029.89
2019-01-03T00:41:43.629Z,1029.90
2019-01-03T00:42:43.612Z,1029.92
2019-01-03T00:43:43.605Z,1029.92
2019-01-03T00:44:43.596Z,1029.94
2019-01-03T00:45:43.610Z,1029.97
2019-01-03T00:46:43.637Z,1030.03
2019-01-03T00:47:43.551Z,1030.01
2019-01-03T00:48:43.616Z,1030.00
2019-01-03T00:49:43.540Z,1030.04
2019-01-03T00:50:43.576Z,1030.08
2019-01-03T00:51:43.533Z,1030.12
2019-01-03T00:52:43.503Z,1030.17
2019-01-03T00:53:43.485Z,1030.13
2019-01-03T00:54:43.484Z,1030.19
2019-01-03T00:55:43.497Z,1030.12
2019-01-03T00:56:43.455Z,1030.14
2019-01-03T00:57:43.437Z,1030.12
2019-01-03T00:58:43.512Z,1030.20
2019-01-03T00:59:43.419Z,1030.21
2019-01-03T01:00:43.408Z,1030.13
2019-01-03T01:01:43.427Z,1030.19
2019-01-03T01:02:43.425Z,1030.23
2019-01-03T01:03:43.369Z,1030.29
2019-01-03T01:04:43.360Z,1030.34
2019-01-03T01:05:43.356Z,1030.30
2019-01-03T01:06:43.362Z,1030.34
2019-01-03T01:07:43.328Z,1030.32
2019-01-03T01:08:43.313Z,1030.37
2019-01-03T01:09:43.326Z,1030.34
2019-01-03T01:10:43.300Z,1030.36
2019-01-03T01:11:43.318Z,1030.32
2019-01-03T01:12:43.270Z,1030.36
2019-01-03T01:13:43.257Z,1030.42
2019-01-03T01:14:43.245Z,1030.41
2019-01-03T01:15:43.236Z,1030.38
2019-01-03T01:16:43.256Z,1030.43
2019-01-03T01:17:43.248Z,1030.38
2019-01-03T01:18:43.206Z,1030.39
2019-01-03T01:19:43.190Z,1030.46
2019-01-03T01:20:43.184Z,1030.49
2019-01-03T01:21:43.196Z,1030.44
2019-01-03T01:22:43.177Z,1030.43
2019-01-03T01:23:43.173Z,1030.50
2019-01-03T01:24:43.136Z,1030.44
2019-01-03T01:25:43.122Z,1030.42
2019-01-03T01:27:44.238Z,1030.44
2019-01-03T01:28:43.119Z,1030.45
2019-01-03T01:29:43.078Z,1030.43
2019-01-03T01:30:43.070Z,1030.41
2019-01-03T01:31:43.063Z,1030.43
2019-01-03T01:32:43.054Z,1030.44
2019-01-03T01:33:43.059Z,1030.48
2019-01-03T01:34:43.032Z,1030.51
2019-01-03T01:35:43.034Z,1030.53
2019-01-03T01:36:43.008Z,1030.52
2019-01-03T01:37:43.002Z,1030.54
2019-01-03T01:38:43.008Z,1030.52
2019-01-03T01:39:42.967Z,1030.58
2019-01-03T01:40:42.984Z,1030.51
2019-01-03T01:41:42.949Z,1030.49
2019-01-03T01:42:42.937Z,1030.48
2019-01-03T01:43:42.950Z,1030.46
2019-01-03T01:45:44.160Z,1030.45
2019-01-03T01:46:43.041Z,1030.42
2019-01-03T01:47:43.006Z,1030.43
2019-01-03T01:48:43.032Z,1030.44
2019-01-03T01:49:43.035Z,1030.46
2019-01-03T01:50:42.980Z,1030.45
2019-01-03T01:51:42.842Z,1030.45
2019-01-03T01:52:42.824Z,1030.40
2019-01-03T01:53:42.814Z,1030.39
2019-01-03T01:54:42.837Z,1030.35
2019-01-03T01:55:42.788Z,1030.35
2019-01-03T01:56:42.781Z,1030.35
2019-01-03T01:57:42.778Z,1030.40
2019-01-03T01:58:42.759Z,1030.41
2019-01-03T01:59:42.782Z,1030.45
2019-01-03T02:00:42.752Z,1030.45
2019-01-03T02:01:42.726Z,1030.48
2019-01-03T02:02:42.714Z,1030.52
2019-01-03T02:03:42.705Z,1030.53
2019-01-03T02:04:42.719Z,1030.58
2019-01-03T02:05:42.703Z,1030.56
2019-01-03T02:06:42.676Z,1030.53
2019-01-03T02:07:42.656Z,1030.50
2019-01-03T02:08:42.647Z,1030.55
2019-01-03T02:09:42.643Z,1030.52
2019-01-03T02:10:42.656Z,1030.54
2019-01-03T02:11:42.619Z,1030.47
2019-01-03T02:12:42.600Z,1030.48
2019-01-03T02:13:42.596Z,1030.45
2019-01-03T02:14:42.583Z,1030.42
2019-01-03T02:15:42.600Z,1030.40
2019-01-03T02:16:42.559Z,1030.40
2019-01-03T02:17:42.564Z,1030.41
2019-01-03T02:18:42.533Z,1030.39
2019-01-03T02:19:42.527Z,1030.36
2019-01-03T02:20:42.515Z,1030.40
2019-01-03T02:21:42.527Z,1030.35
2019-01-03T02:22:42.502Z,1030.35
2019-01-03T02:23:42.483Z,1030.35
2019-01-03T02:24:42.473Z,1030.37
2019-01-03T02:25:42.487Z,1030.35
2019-01-03T02:26:42.476Z,1030.36
2019-01-03T02:27:42.437Z,1030.33
2019-01-03T02:28:42.438Z,1030.31
2019-01-03T02:29:42.410Z,1030.27
2019-01-03T02:30:42.447Z,1030.26
2019-01-03T02:31:42.415Z,1030.27
2019-01-03T02:32:42.391Z,1030.22
2019-01-03T02:33:42.370Z,1030.22
2019-01-03T02:34:42.362Z,1030.20
2019-01-03T02:35:42.410Z,1030.26
2019-01-03T02:36:42.499Z,1030.23
2019-01-03T02:37:42.325Z,1030.21
2019-01-03T02:38:42.319Z,1030.21
2019-01-03T02:39:42.310Z,1030.23
2019-01-03T02:40:42.305Z,1030.18
2019-01-03T02:41:42.330Z,1030.19
2019-01-03T02:42:42.271Z,1030.19
2019-01-03T02:43:42.261Z,1030.19
2019-01-03T02:44:42.247Z,1030.17
2019-01-03T02:45:42.243Z,1030.17
2019-01-03T02:46:42.261Z,1030.21
2019-01-03T02:47:42.213Z,1030.17
2019-01-03T02:48:42.202Z,1030.18
2019-01-03T02:49:42.197Z,1030.14
2019-01-03T02:50:42.184Z,1030.14
2019-01-03T02:51:42.169Z,1030.12
2019-01-03T02:52:42.191Z,1030.15
2019-01-03T02:53:42.149Z,1030.07
2019-01-03T02:54:42.139Z,1030.10
2019-01-03T02:55:42.128Z,1030.08
2019-01-03T02:56:42.118Z,1030.13
2019-01-03T02:57:42.104Z,1030.11
2019-01-03T02:58:42.114Z,1030.20
2019-01-03T02:59:42.085Z,1030.18
2019-01-03T03:00:42.069Z,1030.18
2019-01-03T03:01:42.067Z,1030.24
2019-01-03T03:02:42.089Z,1030.24
2019-01-03T03:03:42.049Z,1030.26
2019-01-03T03:04:42.024Z,1030.23
2019-01-03T03:05:42.017Z,1030.27
2019-01-03T03:06:42.005Z,1030.30
2019-01-03T03:07:42.017Z,1030.32
2019-01-03T03:08:41.979Z,1030.30
2019-01-03T03:09:42.080Z,1030.27
2019-01-03T03:10:41.960Z,1030.28
2019-01-03T03:11:41.985Z,1030.28
2019-01-03T03:12:41.973Z,1030.28
2019-01-03T03:13:41.978Z,1030.24
2019-01-03T03:14:41.912Z,1030.26
2019-01-03T03:15:41.901Z,1030.26
2019-01-03T03:16:41.890Z,1030.24
2019-01-03T03:17:41.908Z,1030.20
2019-01-03T03:18:41.893Z,1030.19
2019-01-03T03:19:41.855Z,1030.17
2019-01-03T03:20:41.849Z,1030.21
2019-01-03T03:21:41.838Z,1030.21
2019-01-03T03:22:41.823Z,1030.20
2019-01-03T03:23:41.844Z,1030.18
2019-01-03T03:24:41.817Z,1030.19
2019-01-03T03:25:41.790Z,1030.19
2019-01-03T03:26:41.779Z,1030.25
2019-01-03T03:27:41.771Z,1030.25
2019-01-03T03:28:41.789Z,1030.27
2019-01-03T03:29:41.748Z,1030.29
2019-01-03T03:30:41.744Z,1030.25
2019-01-03T03:31:41.723Z,1030.24
2019-01-03T03:32:41.732Z,1030.21
2019-01-03T03:33:41.726Z,1030.24
2019-01-03T03:34:41.688Z,1030.23
2019-01-03T03:35:41.691Z,1030.21
2019-01-03T03:36:41.664Z,1030.24
2019-01-03T03:37:41.657Z,1030.19
2019-01-03T03:38:41.676Z,1030.23
2019-01-03T03:39:41.631Z,1030.18
2019-01-03T03:40:41.622Z,1030.21
2019-01-03T03:41:41.634Z,1030.16
2019-01-03T03:42:41.597Z,1030.14
2019-01-03T03:43:41.640Z,1030.10
2019-01-03T03:44:41.605Z,1030.06
2019-01-03T03:45:41.634Z,1030.07
2019-01-03T03:46:41.573Z,1030.05
2019-01-03T03:47:41.572Z,1030.02
2019-01-03T03:48:41.583Z,1029.99
2019-01-03T03:49:41.519Z,1030.01
2019-01-03T03:50:41.521Z,1030.00
2019-01-03T03:51:41.503Z,1030.01
2019-01-03T03:52:41.505Z,1029.98
2019-01-03T03:53:41.473Z,1030.00
2019-01-03T03:54:41.517Z,1029.98
2019-01-03T03:55:41.454Z,1029.98
2019-01-03T03:56:41.457Z,1029.98
2019-01-03T03:57:41.438Z,1030.02
2019-01-03T03:58:41.424Z,1029.97
2019-01-03T03:59:41.485Z,1029.98
2019-01-03T04:00:41.396Z,1030.03
2019-01-03T04:01:41.393Z,1030.04
2019-01-03T04:02:41.375Z,1030.02
2019-01-03T04:03:41.380Z,1030.02
2019-01-03T04:04:41.387Z,1030.04
2019-01-03T04:05:41.345Z,1029.99
2019-01-03T04:06:41.377Z,1029.99
2019-01-03T04:07:41.330Z,1030.02
2019-01-03T04:08:41.318Z,1030.03
2019-01-03T04:09:41.331Z,1030.03
2019-01-03T04:10:41.324Z,1029.98
2019-01-03T04:11:41.274Z,1030.01
2019-01-03T04:12:41.262Z,1029.99
2019-01-03T04:13:41.274Z,1029.98
2019-01-03T04:14:41.255Z,1029.97
2019-01-03T04:15:41.262Z,1029.93
2019-01-03T04:16:41.336Z,1029.94
2019-01-03T04:17:41.250Z,1029.96
2019-01-03T04:18:41.273Z,1029.97
2019-01-03T04:19:41.255Z,1029.92
2019-01-03T04:20:41.301Z,1029.97
2019-01-03T04:21:41.344Z,1029.96
2019-01-03T04:22:41.323Z,1029.94
2019-01-03T04:23:41.357Z,1029.95
2019-01-03T04:24:41.379Z,1029.91
2019-01-03T04:25:41.367Z,1029.93
2019-01-03T04:26:41.217Z,1029.93
2019-01-03T04:27:41.158Z,1029.96
2019-01-03T04:28:41.424Z,1029.92
2019-01-03T04:29:41.079Z,1029.91
2019-01-03T04:30:41.413Z,1029.96
2019-01-03T04:31:41.100Z,1029.96
2019-01-03T04:32:41.063Z,1029.94
2019-01-03T04:33:41.050Z,1029.97
2019-01-03T04:34:41.020Z,1029.90
2019-01-03T04:35:41.040Z,1029.92
2019-01-03T04:36:41.003Z,1029.93
2019-01-03T04:37:41.013Z,1029.92
2019-01-03T04:38:40.974Z,1029.94
2019-01-03T04:39:40.970Z,1029.93
2019-01-03T04:40:40.952Z,1029.96
2019-01-03T04:41:40.966Z,1030.03
2019-01-03T04:42:41.111Z,1030.03
2019-01-03T04:43:40.930Z,1029.99
2019-01-03T04:44:40.908Z,1029.97
2019-01-03T04:45:40.898Z,1030.01
2019-01-03T04:46:40.927Z,1029.99
2019-01-03T04:47:40.880Z,1029.97
2019-01-03T04:48:40.874Z,1029.97
2019-01-03T04:49:40.850Z,1029.96
2019-01-03T04:50:40.842Z,1029.99
2019-01-03T04:51:40.857Z,1029.98
2019-01-03T04:52:40.865Z,1029.98
2019-01-03T04:53:40.808Z,1030.00
2019-01-03T04:54:40.807Z,1029.97
2019-01-03T04:55:40.786Z,1029.98
2019-01-03T04:56:40.778Z,1029.98
2019-01-03T04:57:40.803Z,1029.94
2019-01-03T04:58:40.767Z,1029.95
2019-01-03T04:59:40.754Z,1029.93
2019-01-03T05:00:40.746Z,1029.90
2019-01-03T05:01:40.718Z,1029.89
2019-01-03T05:02:40.745Z,1029.86
2019-01-03T05:03:40.726Z,1029.87
2019-01-03T05:04:40.693Z,1029.84
2019-01-03T05:05:40.693Z,1029.85
2019-01-03T05:06:40.689Z,1029.92
2019-01-03T05:07:40.675Z,1029.88
2019-01-03T05:08:40.667Z,1029.86
2019-01-03T05:09:40.632Z,1029.85
2019-01-03T05:10:40.623Z,1029.86
2019-01-03T05:11:40.615Z,1029.87
2019-01-03T05:12:40.593Z,1029.90
2019-01-03T05:13:40.632Z,1029.85
2019-01-03T05:14:40.572Z,1029.91
2019-01-03T05:15:40.565Z,1029.96
2019-01-03T05:16:40.628Z,1029.87
2019-01-03T05:17:40.547Z,1029.95
2019-01-03T05:18:40.583Z,1029.92
2019-01-03T05:19:40.524Z,1029.91
2019-01-03T05:20:40.506Z,1029.87
2019-01-03T05:21:40.496Z,1029.88
2019-01-03T05:22:40.485Z,1029.88
2019-01-03T05:23:40.476Z,1029.85
2019-01-03T05:24:40.502Z,1029.87
2019-01-03T05:25:40.498Z,1029.86
2019-01-03T05:26:40.438Z,1029.87
2019-01-03T05:27:40.545Z,1029.91
2019-01-03T05:28:40.463Z,1029.90
2019-01-03T05:29:40.439Z,1029.93
2019-01-03T05:30:40.402Z,1029.90
2019-01-03T05:31:40.407Z,1029.94
2019-01-03T05:32:40.375Z,1029.97
2019-01-03T05:33:40.389Z,1029.97
2019-01-03T05:34:40.387Z,1029.97
2019-01-03T05:35:40.349Z,1029.97
2019-01-03T05:36:40.330Z,1029.95
2019-01-03T05:37:40.320Z,1029.93
2019-01-03T05:38:40.309Z,1029.98
2019-01-03T05:39:40.315Z,1029.99
2019-01-03T05:40:40.325Z,1029.94
2019-01-03T05:41:40.288Z,1029.97
2019-01-03T05:42:40.266Z,1029.96
2019-01-03T05:43:40.255Z,1029.94
2019-01-03T05:44:40.323Z,1029.92
2019-01-03T05:45:40.244Z,1029.90
2019-01-03T05:46:40.229Z,1029.92
2019-01-03T05:47:40.210Z,1029.94
2019-01-03T05:48:40.198Z,1029.95
2019-01-03T05:49:40.235Z,1029.98
2019-01-03T05:50:40.176Z,1030.00
2019-01-03T05:51:40.159Z,1030.02
2019-01-03T05:52:40.158Z,1030.04
2019-01-03T05:53:40.138Z,1029.97
2019-01-03T05:54:40.170Z,1029.93
2019-01-03T05:55:40.192Z,1029.94
2019-01-03T05:56:40.103Z,1029.94
2019-01-03T05:57:40.128Z,1029.96
2019-01-03T05:58:40.087Z,1029.93
2019-01-03T05:59:40.074Z,1029.96
2019-01-03T06:00:40.099Z,1030.00
2019-01-03T06:01:40.050Z,1030.01
2019-01-03T06:02:40.035Z,1030.05
2019-01-03T06:03:40.027Z,1030.03
2019-01-03T06:04:40.019Z,1030.05
2019-01-03T06:05:40.034Z,1030.04
2019-01-03T06:06:39.995Z,1030.04
2019-01-03T06:07:39.982Z,1030.02
2019-01-03T06:08:39.970Z,1030.07
2019-01-03T06:09:39.959Z,1030.07
2019-01-03T06:10:39.989Z,1030.09
2019-01-03T06:11:40.833Z,1030.11
2019-01-03T06:12:39.986Z,1030.09
2019-01-03T06:13:39.917Z,1030.09
2019-01-03T06:14:39.910Z,1030.09
2019-01-03T06:15:39.910Z,1030.05
2019-01-03T06:16:39.919Z,1030.05
2019-01-03T06:17:39.878Z,1030.05
2019-01-03T06:18:39.863Z,1030.03
2019-01-03T06:19:39.852Z,1030.05
2019-01-03T06:20:40.104Z,1030.05
2019-01-03T06:21:39.849Z,1030.05
2019-01-03T06:22:39.833Z,1030.08
2019-01-03T06:23:40.261Z,1030.09
2019-01-03T06:24:39.791Z,1030.08
2019-01-03T06:25:40.011Z,1030.05
2019-01-03T06:26:39.943Z,1030.03
2019-01-03T06:27:39.846Z,1030.02
2019-01-03T06:28:39.990Z,1029.97
2019-01-03T06:29:39.772Z,1029.99
2019-01-03T06:30:39.826Z,1029.96
2019-01-03T06:31:39.893Z,1029.97
2019-01-03T06:32:40.268Z,1029.92
2019-01-03T06:33:40.159Z,1029.93
2019-01-03T06:34:39.912Z,1029.90
2019-01-03T06:35:41.464Z,1029.92
2019-01-03T06:36:39.689Z,1029.91
2019-01-03T06:37:39.676Z,1029.91
2019-01-03T06:39:41.069Z,1029.97
2019-01-03T06:40:40.006Z,1030.00
2019-01-03T06:41:39.634Z,1029.98
2019-01-03T06:42:39.948Z,1029.96
2019-01-03T06:43:39.583Z,1030.00
2019-01-03T06:44:39.574Z,1029.94
2019-01-03T06:45:39.577Z,1029.95
2019-01-03T06:46:39.566Z,1029.99
2019-01-03T06:47:40.394Z,1029.97
2019-01-03T06:48:40.218Z,1029.92
2019-01-03T06:49:39.516Z,1029.87
2019-01-03T06:50:39.508Z,1029.89
2019-01-03T06:51:39.554Z,1029.93
2019-01-03T06:52:40.587Z,1029.91
2019-01-03T06:53:39.469Z,1029.90
2019-01-03T06:54:39.457Z,1029.91
2019-01-03T06:55:39.459Z,1029.89
2019-01-03T06:56:39.436Z,1029.95
2019-01-03T06:57:39.433Z,1029.95
2019-01-03T06:58:39.455Z,1029.90
2019-01-03T06:59:39.404Z,1029.95
2019-01-03T07:00:39.391Z,1029.92
2019-01-03T07:01:39.391Z,1029.91
2019-01-03T07:02:39.431Z,1029.94
2019-01-03T07:03:39.403Z,1029.95
2019-01-03T07:04:39.344Z,1029.98
2019-01-03T07:05:39.337Z,1029.97
2019-01-03T07:06:39.327Z,1029.99
2019-01-03T07:07:39.318Z,1029.98
2019-01-03T07:08:39.339Z,1030.03
2019-01-03T07:09:39.299Z,1030.03
2019-01-03T07:10:39.281Z,1030.05
2019-01-03T07:11:39.265Z,1030.08
2019-01-03T07:12:39.262Z,1030.11
2019-01-03T07:13:39.258Z,1030.16
2019-01-03T07:14:39.273Z,1030.14
2019-01-03T07:15:39.229Z,1030.23
2019-01-03T07:16:39.212Z,1030.22
2019-01-03T07:17:39.202Z,1030.28
2019-01-03T07:18:39.198Z,1030.30
2019-01-03T07:19:39.206Z,1030.29
2019-01-03T07:20:39.178Z,1030.31
2019-01-03T07:21:39.207Z,1030.24
2019-01-03T07:22:39.143Z,1030.31
2019-01-03T07:23:39.158Z,1030.33
2019-01-03T07:24:39.161Z,1030.33
2019-01-03T07:25:39.114Z,1030.35
2019-01-03T07:26:39.108Z,1030.33
2019-01-03T07:27:39.092Z,1030.36
2019-01-03T07:28:39.079Z,1030.34
2019-01-03T07:29:39.094Z,1030.35
2019-01-03T07:30:39.055Z,1030.33
2019-01-03T07:31:39.051Z,1030.36
2019-01-03T07:32:39.054Z,1030.42
2019-01-03T07:33:39.022Z,1030.47
2019-01-03T07:34:39.121Z,1030.46
2019-01-03T07:35:39.002Z,1030.52
2019-01-03T07:36:38.987Z,1030.54
2019-01-03T07:37:38.991Z,1030.57
2019-01-03T07:38:38.966Z,1030.56
2019-01-03T07:39:39.007Z,1030.56
2019-01-03T07:40:38.943Z,1030.54
2019-01-03T07:41:38.933Z,1030.57
2019-01-03T07:42:38.920Z,1030.56
2019-01-03T07:43:38.931Z,1030.55
2019-01-03T07:44:38.899Z,1030.48
2019-01-03T07:45:39.090Z,1030.52
2019-01-03T07:46:38.880Z,1030.50
2019-01-03T07:47:38.875Z,1030.51
2019-01-03T07:48:38.862Z,1030.57
2019-01-03T07:49:38.909Z,1030.59
2019-01-03T07:50:38.864Z,1030.58
2019-01-03T07:51:38.830Z,1030.61
2019-01-03T07:52:38.810Z,1030.64
2019-01-03T07:53:38.802Z,1030.68
2019-01-03T07:54:38.858Z,1030.68
2019-01-03T07:55:38.808Z,1030.70
2019-01-03T07:56:38.765Z,1030.73
2019-01-03T07:57:38.758Z,1030.68
2019-01-03T07:58:38.742Z,1030.72
2019-01-03T07:59:38.738Z,1030.73
2019-01-03T08:00:38.756Z,1030.73
2019-01-03T08:01:38.725Z,1030.77
2019-01-03T08:02:38.702Z,1030.76
2019-01-03T08:03:38.702Z,1030.77
2019-01-03T08:04:38.679Z,1030.77
2019-01-03T08:05:38.700Z,1030.80
2019-01-03T08:06:38.660Z,1030.82
2019-01-03T08:07:38.659Z,1030.81
2019-01-03T08:08:38.635Z,1030.80
2019-01-03T08:09:38.623Z,1030.79
2019-01-03T08:10:38.640Z,1030.84
2019-01-03T08:11:38.605Z,1030.82
2019-01-03T08:12:38.599Z,1030.82
2019-01-03T08:13:38.580Z,1030.80
2019-01-03T08:14:38.601Z,1030.82
2019-01-03T08:15:38.587Z,1030.77
2019-01-03T08:16:38.551Z,1030.78
2019-01-03T08:17:38.535Z,1030.77
2019-01-03T08:18:38.527Z,1030.76
2019-01-03T08:19:38.511Z,1030.77
2019-01-03T08:20:38.544Z,1030.87
2019-01-03T08:21:38.486Z,1030.84
2019-01-03T08:22:38.514Z,1030.77
2019-01-03T08:23:38.480Z,1030.81
2019-01-03T08:24:38.474Z,1030.79
2019-01-03T08:25:38.445Z,1030.81
2019-01-03T08:26:38.462Z,1030.82
2019-01-03T08:27:38.428Z,1030.82
2019-01-03T08:28:38.568Z,1030.84
2019-01-03T08:29:38.402Z,1030.82
2019-01-03T08:30:38.409Z,1030.82
2019-01-03T08:31:38.408Z,1030.86
2019-01-03T08:32:38.366Z,1030.83
2019-01-03T08:33:38.357Z,1030.80
2019-01-03T08:34:38.343Z,1030.79
2019-01-03T08:35:38.346Z,1030.78
2019-01-03T08:36:38.367Z,1030.74
2019-01-03T08:37:38.316Z,1030.78
2019-01-03T08:38:38.301Z,1030.75
2019-01-03T08:39:38.287Z,1030.75
2019-01-03T08:40:38.279Z,1030.75
2019-01-03T08:41:38.277Z,1030.72
2019-01-03T08:42:38.289Z,1030.72
2019-01-03T08:43:38.245Z,1030.73
2019-01-03T08:44:38.235Z,1030.69
2019-01-03T08:45:38.223Z,1030.71
2019-01-03T08:46:38.256Z,1030.75
2019-01-03T08:47:38.231Z,1030.76
2019-01-03T08:48:38.192Z,1030.73
2019-01-03T08:49:38.176Z,1030.77
2019-01-03T08:50:38.188Z,1030.74
2019-01-03T08:51:38.156Z,1030.75
2019-01-03T08:52:38.297Z,1030.77
2019-01-03T08:53:38.145Z,1030.80
2019-01-03T08:54:38.130Z,1030.82
2019-01-03T08:55:38.112Z,1030.78
2019-01-03T08:56:38.113Z,1030.80
2019-01-03T08:57:38.092Z,1030.83
2019-01-03T08:58:38.124Z,1030.82
2019-01-03T08:59:38.071Z,1030.85
2019-01-03T09:00:38.084Z,1030.86
2019-01-03T09:01:38.041Z,1030.84
2019-01-03T09:02:38.032Z,1030.85
2019-01-03T09:03:38.053Z,1030.89
2019-01-03T09:04:38.018Z,1030.87
2019-01-03T09:05:38.029Z,1030.88
2019-01-03T09:06:37.992Z,1030.93
2019-01-03T09:07:37.980Z,1030.93
2019-01-03T09:08:38.000Z,1030.96
2019-01-03T09:09:37.958Z,1030.95
2019-01-03T09:10:37.945Z,1030.97
2019-01-03T09:11:37.960Z,1030.96
2019-01-03T09:12:37.949Z,1030.97
2019-01-03T09:13:37.942Z,1030.95
2019-01-03T09:14:37.928Z,1030.97
2019-01-03T09:15:37.890Z,1030.94
2019-01-03T09:16:37.898Z,1030.98
2019-01-03T09:17:37.870Z,1030.89
2019-01-03T09:18:37.896Z,1030.87
2019-01-03T09:19:37.842Z,1030.89
2019-01-03T09:20:37.831Z,1030.90
2019-01-03T09:21:37.823Z,1030.91
2019-01-03T09:22:37.818Z,1030.92
2019-01-03T09:23:37.847Z,1030.96
2019-01-03T09:24:37.826Z,1030.89
2019-01-03T09:25:37.777Z,1030.93
2019-01-03T09:26:37.774Z,1031.00
2019-01-03T09:27:37.772Z,1030.89
2019-01-03T09:28:37.749Z,1030.93
2019-01-03T09:29:37.763Z,1030.92
2019-01-03T09:30:37.720Z,1030.89
2019-01-03T09:31:37.710Z,1030.89
2019-01-03T09:32:37.707Z,1030.88
2019-01-03T09:33:37.693Z,1030.96
2019-01-03T09:34:37.705Z,1031.00
2019-01-03T09:35:37.674Z,1031.00
2019-01-03T09:36:37.653Z,1030.93
2019-01-03T09:37:37.648Z,1030.94
2019-01-03T09:38:37.651Z,1030.97
2019-01-03T09:39:37.652Z,1030.97
2019-01-03T09:40:37.640Z,1030.95
2019-01-03T09:41:37.620Z,1030.98
2019-01-03T09:42:37.586Z,1030.94
2019-01-03T09:43:37.584Z,1030.93
2019-01-03T09:44:37.646Z,1030.89
2019-01-03T09:45:44.082Z,1030.93
2019-01-03T09:46:38.541Z,1030.94
2019-01-03T09:47:37.540Z,1031.00
2019-01-03T09:48:37.525Z,1030.95
2019-01-03T09:49:37.514Z,1030.96
2019-01-03T09:50:37.533Z,1030.99
2019-01-03T09:51:37.489Z,1030.97
2019-01-03T09:52:37.497Z,1030.91
2019-01-03T09:53:37.467Z,1030.92
2019-01-03T09:54:37.453Z,1030.95
2019-01-03T09:55:37.475Z,1030.93
2019-01-03T09:56:37.443Z,1030.95
2019-01-03T09:57:37.424Z,1030.97
2019-01-03T09:58:37.421Z,1030.97
2019-01-03T09:59:37.398Z,1030.97
2019-01-03T10:00:37.419Z,1030.92
2019-01-03T10:01:37.381Z,1030.93
2019-01-03T10:02:37.378Z,1030.90
2019-01-03T10:03:37.377Z,1030.83
2019-01-03T10:04:37.353Z,1030.84
2019-01-03T10:05:37.373Z,1030.87
2019-01-03T10:06:37.327Z,1030.82
2019-01-03T10:07:37.312Z,1030.89
2019-01-03T10:08:37.316Z,1030.88
2019-01-03T10:09:37.296Z,1030.89
2019-01-03T10:10:37.327Z,1030.94
2019-01-03T10:11:37.305Z,1030.91
2019-01-03T10:12:37.257Z,1030.89
2019-01-03T10:13:37.250Z,1030.92
2019-01-03T10:14:37.243Z,1030.93
2019-01-03T10:15:37.225Z,1030.91
2019-01-03T10:16:37.211Z,1030.96
2019-01-03T10:17:37.231Z,1030.97
2019-01-03T10:18:37.199Z,1030.97
2019-01-03T10:19:37.187Z,1031.00
2019-01-03T10:20:37.170Z,1030.95
2019-01-03T10:21:37.190Z,1030.95
2019-01-03T10:22:37.183Z,1030.98
2019-01-03T10:23:37.143Z,1030.94
2019-01-03T10:24:37.128Z,1030.94
2019-01-03T10:25:37.114Z,1030.94
2019-01-03T10:26:37.101Z,1030.92
2019-01-03T10:27:37.123Z,1030.95
2019-01-03T10:28:37.080Z,1030.93
2019-01-03T10:29:37.066Z,1030.91
2019-01-03T10:30:37.083Z,1030.87
2019-01-03T10:31:37.053Z,1030.82
2019-01-03T10:32:37.041Z,1030.83
2019-01-03T10:33:37.028Z,1030.82
2019-01-03T10:34:37.011Z,1030.81
2019-01-03T10:35:37.037Z,1030.76
2019-01-03T10:36:37.019Z,1030.74
2019-01-03T10:37:36.987Z,1030.77
2019-01-03T10:38:36.971Z,1030.77
2019-01-03T10:39:37.015Z,1030.79
2019-01-03T10:40:36.945Z,1030.77
2019-01-03T10:41:36.972Z,1030.76
2019-01-03T10:42:36.930Z,1030.72
2019-01-03T10:43:36.919Z,1030.71
2019-01-03T10:44:36.901Z,1030.66
2019-01-03T10:45:36.892Z,1030.71
2019-01-03T10:46:36.916Z,1030.62
2019-01-03T10:47:36.871Z,1030.56
2019-01-03T10:48:36.884Z,1030.57
2019-01-03T10:49:36.870Z,1030.56
2019-01-03T10:50:36.840Z,1030.55
2019-01-03T10:51:36.856Z,1030.53
2019-01-03T10:52:36.816Z,1030.52
2019-01-03T10:53:36.829Z,1030.49
2019-01-03T10:54:36.867Z,1030.47
2019-01-03T10:55:36.776Z,1030.51
2019-01-03T10:56:36.774Z,1030.50
2019-01-03T10:57:37.369Z,1030.47
2019-01-03T10:58:36.780Z,1030.46
2019-01-03T10:59:36.731Z,1030.50
2019-01-03T11:00:36.728Z,1030.49
2019-01-03T11:01:36.712Z,1030.45
2019-01-03T11:02:36.746Z,1030.48
2019-01-03T11:03:36.697Z,1030.50
2019-01-03T11:04:36.716Z,1030.48
2019-01-03T11:05:36.672Z,1030.49
2019-01-03T11:06:36.663Z,1030.51
2019-01-03T11:07:36.650Z,1030.53
2019-01-03T11:08:36.657Z,1030.52
2019-01-03T11:09:36.625Z,1030.49
2019-01-03T11:10:36.611Z,1030.45
2019-01-03T11:11:36.607Z,1030.43
2019-01-03T11:12:36.619Z,1030.39
2019-01-03T11:13:36.629Z,1030.43
2019-01-03T11:14:36.591Z,1030.48
2019-01-03T11:15:36.564Z,1030.46
2019-01-03T11:16:36.543Z,1030.39
2019-01-03T11:17:36.539Z,1030.40
2019-01-03T11:18:36.551Z,1030.40
2019-01-03T11:19:36.522Z,1030.38
2019-01-03T11:20:36.509Z,1030.43
2019-01-03T11:21:36.501Z,1030.47
2019-01-03T11:22:36.481Z,1030.49
2019-01-03T11:23:36.668Z,1030.48
2019-01-03T11:24:36.458Z,1030.48
2019-01-03T11:25:36.463Z,1030.45
2019-01-03T11:26:36.448Z,1030.42
2019-01-03T11:27:36.424Z,1030.45
2019-01-03T11:28:36.444Z,1030.48
2019-01-03T11:29:36.404Z,1030.43
2019-01-03T11:30:36.387Z,1030.41
2019-01-03T11:31:36.381Z,1030.38
2019-01-03T11:32:36.390Z,1030.40
2019-01-03T11:33:36.396Z,1030.37
2019-01-03T11:34:36.352Z,1030.35
2019-01-03T11:35:36.360Z,1030.40
2019-01-03T11:36:36.326Z,1030.46
2019-01-03T11:37:36.317Z,1030.40
2019-01-03T11:38:36.303Z,1030.37
2019-01-03T11:39:36.335Z,1030.37
2019-01-03T11:40:36.282Z,1030.35
2019-01-03T11:41:36.269Z,1030.32
2019-01-03T11:42:36.265Z,1030.36
2019-01-03T11:43:36.259Z,1030.35
2019-01-03T11:44:36.303Z,1030.36
2019-01-03T11:45:36.231Z,1030.38
2019-01-03T11:46:36.222Z,1030.38
2019-01-03T11:47:36.199Z,1030.35
2019-01-03T11:48:36.237Z,1030.34
2019-01-03T11:49:36.196Z,1030.25
2019-01-03T11:50:36.206Z,1030.32
2019-01-03T11:51:36.156Z,1030.32
2019-01-03T11:52:36.150Z,1030.29
2019-01-03T11:53:36.144Z,1030.34
2019-01-03T11:54:36.127Z,1030.32
2019-01-03T11:55:36.316Z,1030.36
2019-01-03T11:56:36.111Z,1030.39
2019-01-03T11:57:36.092Z,1030.38
2019-01-03T11:58:36.085Z,1030.35
2019-01-03T11:59:36.340Z,1030.43
2019-01-03T12:00:36.099Z,1030.44
2019-01-03T12:01:36.055Z,1030.45
2019-01-03T12:02:36.041Z,1030.43
2019-01-03T12:03:36.036Z,1030.43
2019-01-03T12:04:36.021Z,1030.45
2019-01-03T12:05:36.043Z,1030.41
2019-01-03T12:06:36.003Z,1030.40
2019-01-03T12:07:35.992Z,1030.43
2019-01-03T12:08:35.976Z,1030.41